sensor_id;sensor_type;location;lat;lon;timestamp;pressure;altitude;pressure_sealevel;temperature;humidity
65983;BME280;52740;40.620;-8.640;2022-10-18T00:01:11;101457.50;;;16.48;100.00
65983;BME280;52740;40.620;-8.640;2022-10-18T00:03:11;101452.75;;;16.48;100.00
65983;BME280;52740;40.620;-8.640;2022-10-18T00:05:12;101444.47;;;16.52;100.00
65983;BME280;52740;40.620;-8.640;2022-10-18T00:07:13;101441.34;;;16.57;100.00
65983;BME280;52740;40.620;-8.640;2022-10-18T00:09:13;101435.03;;;16.60;100.00
65983;BME280;52740;40.620;-8.640;2022-10-18T00:11:14;101431.50;;;16.63;100.00
65983;BME280;52740;40.620;-8.640;2022-10-18T00:13:15;101435.47;;;16.69;100.00
65983;BME280;52740;40.620;-8.640;2022-10-18T00:15:16;101435.88;;;16.71;100.00
65983;BME280;52740;40.620;-8.640;2022-10-18T00:17:17;101435.88;;;16.78;100.00
65983;BME280;52740;40.620;-8.640;2022-10-18T00:19:23;101433.91;;;16.86;100.00
65983;BME280;52740;40.620;-8.640;2022-10-18T00:21:25;101436.31;;;16.94;100.00
65983;BME280;52740;40.620;-8.640;2022-10-18T00:23:35;101430.38;;;16.96;100.00
65983;BME280;52740;40.620;-8.640;2022-10-18T00:25:36;101431.19;;;16.96;100.00
65983;BME280;52740;40.620;-8.640;2022-10-18T00:27:36;101428.41;;;16.96;100.00
65983;BME280;52740;40.620;-8.640;2022-10-18T00:29:37;101429.59;;;16.95;100.00
65983;BME280;52740;40.620;-8.640;2022-10-18T00:31:38;101429.22;;;17.00;100.00
65983;BME280;52740;40.620;-8.640;2022-10-18T00:33:39;101425.66;;;17.07;100.00
65983;BME280;52740;40.620;-8.640;2022-10-18T00:35:40;101433.56;;;17.08;100.00
65983;BME280;52740;40.620;-8.640;2022-10-18T00:37:41;101432.78;;;17.11;100.00
65983;BME280;52740;40.620;-8.640;2022-10-18T00:39:51;101423.28;;;17.09;100.00
65983;BME280;52740;40.620;-8.640;2022-10-18T00:41:58;101442.66;;;17.12;100.00
65983;BME280;52740;40.620;-8.640;2022-10-18T00:46:39;101437.94;;;17.02;100.00
65983;BME280;52740;40.620;-8.640;2022-10-18T00:48:40;101430.38;;;16.92;100.00
65983;BME280;52740;40.620;-8.640;2022-10-18T00:50:41;101437.50;;;16.93;100.00
65983;BME280;52740;40.620;-8.640;2022-10-18T00:54:50;101427.59;;;16.78;100.00
65983;BME280;52740;40.620;-8.640;2022-10-18T00:56:51;101431.16;;;16.72;100.00
65983;BME280;52740;40.620;-8.640;2022-10-18T00:58:52;101423.97;;;16.63;100.00
65983;BME280;52740;40.620;-8.640;2022-10-18T01:00:57;101424.78;;;16.64;100.00
65983;BME280;52740;40.620;-8.640;2022-10-18T01:02:58;101417.66;;;16.59;100.00
65983;BME280;52740;40.620;-8.640;2022-10-18T01:04:59;101420.03;;;16.61;100.00
65983;BME280;52740;40.620;-8.640;2022-10-18T01:09:40;101416.84;;;16.59;100.00
65983;BME280;52740;40.620;-8.640;2022-10-18T01:16:51;101409.78;;;16.68;100.00
65983;BME280;52740;40.620;-8.640;2022-10-18T01:19:10;101412.53;;;16.65;100.00
65983;BME280;52740;40.620;-8.640;2022-10-18T01:21:42;101408.97;;;16.68;100.00
65983;BME280;52740;40.620;-8.640;2022-10-18T01:32:13;101414.53;;;16.75;100.00
65983;BME280;52740;40.620;-8.640;2022-10-18T01:34:05;101406.25;;;16.79;100.00
65983;BME280;52740;40.620;-8.640;2022-10-18T01:36:45;101407.81;;;16.76;100.00
65983;BME280;52740;40.620;-8.640;2022-10-18T01:38:57;101411.78;;;16.72;100.00
65983;BME280;52740;40.620;-8.640;2022-10-18T01:41:02;101413.75;;;16.71;100.00
65983;BME280;52740;40.620;-8.640;2022-10-18T01:43:05;101414.50;;;16.68;100.00
65983;BME280;52740;40.620;-8.640;2022-10-18T01:45:08;101409.34;;;16.63;100.00
65983;BME280;52740;40.620;-8.640;2022-10-18T01:47:12;101411.75;;;16.64;100.00
65983;BME280;52740;40.620;-8.640;2022-10-18T01:49:13;101406.59;;;16.59;100.00
65983;BME280;52740;40.620;-8.640;2022-10-18T01:51:14;101410.56;;;16.58;100.00
65983;BME280;52740;40.620;-8.640;2022-10-18T01:53:26;101397.47;;;16.52;100.00
65983;BME280;52740;40.620;-8.640;2022-10-18T01:55:41;101394.69;;;16.55;100.00
65983;BME280;52740;40.620;-8.640;2022-10-18T02:00:17;101388.44;;;16.62;100.00
65983;BME280;52740;40.620;-8.640;2022-10-18T02:04:44;101386.06;;;16.64;100.00
65983;BME280;52740;40.620;-8.640;2022-10-18T02:06:52;101379.72;;;16.60;100.00
65983;BME280;52740;40.620;-8.640;2022-10-18T02:09:17;101385.25;;;16.63;100.00
65983;BME280;52740;40.620;-8.640;2022-10-18T02:11:19;101387.22;;;16.63;100.00
65983;BME280;52740;40.620;-8.640;2022-10-18T02:13:21;101381.31;;;16.68;100.00
65983;BME280;52740;40.620;-8.640;2022-10-18T02:15:38;101382.91;;;16.69;100.00
65983;BME280;52740;40.620;-8.640;2022-10-18T02:17:39;101378.59;;;16.72;100.00
65983;BME280;52740;40.620;-8.640;2022-10-18T02:19:48;101382.13;;;16.72;100.00
65983;BME280;52740;40.620;-8.640;2022-10-18T02:21:51;101381.34;;;16.75;100.00
65983;BME280;52740;40.620;-8.640;2022-10-18T02:23:53;101382.91;;;16.76;100.00
65983;BME280;52740;40.620;-8.640;2022-10-18T02:25:54;101375.81;;;16.75;100.00
65983;BME280;52740;40.620;-8.640;2022-10-18T02:27:55;101373.03;;;16.79;100.00
65983;BME280;52740;40.620;-8.640;2022-10-18T02:29:56;101373.84;;;16.79;100.00
65983;BME280;52740;40.620;-8.640;2022-10-18T02:34:49;101362.38;;;16.88;100.00
65983;BME280;52740;40.620;-8.640;2022-10-18T02:36:56;101366.31;;;16.90;100.00
65983;BME280;52740;40.620;-8.640;2022-10-18T02:39:02;101362.00;;;16.96;100.00
65983;BME280;52740;40.620;-8.640;2022-10-18T02:41:05;101360.81;;;17.01;100.00
65983;BME280;52740;40.620;-8.640;2022-10-18T02:43:06;101352.13;;;17.02;100.00
65983;BME280;52740;40.620;-8.640;2022-10-18T02:45:07;101351.72;;;17.00;100.00
65983;BME280;52740;40.620;-8.640;2022-10-18T02:47:09;101354.47;;;17.04;100.00
65983;BME280;52740;40.620;-8.640;2022-10-18T02:49:10;101342.22;;;17.05;100.00
65983;BME280;52740;40.620;-8.640;2022-10-18T02:51:11;101335.91;;;17.04;100.00
65983;BME280;52740;40.620;-8.640;2022-10-18T02:53:11;101339.44;;;17.08;100.00
65983;BME280;52740;40.620;-8.640;2022-10-18T02:55:12;101337.88;;;17.04;100.00
65983;BME280;52740;40.620;-8.640;2022-10-18T02:57:13;101326.41;;;16.95;100.00
65983;BME280;52740;40.620;-8.640;2022-10-18T02:59:14;101332.34;;;16.93;100.00
65983;BME280;52740;40.620;-8.640;2022-10-18T03:01:14;101341.84;;;16.92;100.00
65983;BME280;52740;40.620;-8.640;2022-10-18T03:03:15;101341.03;;;16.88;100.00
65983;BME280;52740;40.620;-8.640;2022-10-18T03:05:16;101344.59;;;16.82;100.00
65983;BME280;52740;40.620;-8.640;2022-10-18T03:07:16;101337.88;;;16.79;100.00
65983;BME280;52740;40.620;-8.640;2022-10-18T03:09:17;101338.63;;;16.76;100.00
65983;BME280;52740;40.620;-8.640;2022-10-18T03:11:18;101332.72;;;16.67;100.00
65983;BME280;52740;40.620;-8.640;2022-10-18T03:13:19;101341.78;;;16.67;100.00
65983;BME280;52740;40.620;-8.640;2022-10-18T03:15:20;101336.25;;;16.64;100.00
65983;BME280;52740;40.620;-8.640;2022-10-18T03:17:21;101332.31;;;16.58;100.00
65983;BME280;52740;40.620;-8.640;2022-10-18T03:19:21;101325.97;;;16.54;100.00
65983;BME280;52740;40.620;-8.640;2022-10-18T03:21:22;101320.81;;;16.45;100.00
65983;BME280;52740;40.620;-8.640;2022-10-18T03:23:23;101321.19;;;16.51;100.00
65983;BME280;52740;40.620;-8.640;2022-10-18T03:25:23;101326.34;;;16.45;100.00
65983;BME280;52740;40.620;-8.640;2022-10-18T03:27:25;101328.69;;;16.47;100.00
65983;BME280;52740;40.620;-8.640;2022-10-18T03:29:25;101331.09;;;16.48;100.00
65983;BME280;52740;40.620;-8.640;2022-10-18T03:31:26;101329.50;;;16.47;100.00
65983;BME280;52740;40.620;-8.640;2022-10-18T03:33:27;101326.72;;;16.47;100.00
65983;BME280;52740;40.620;-8.640;2022-10-18T03:35:28;101329.88;;;16.46;100.00
65983;BME280;52740;40.620;-8.640;2022-10-18T03:37:29;101329.09;;;16.42;100.00
65983;BME280;52740;40.620;-8.640;2022-10-18T03:39:30;101327.09;;;16.39;100.00
65983;BME280;52740;40.620;-8.640;2022-10-18T03:41:30;101316.84;;;16.39;100.00
65983;BME280;52740;40.620;-8.640;2022-10-18T03:43:31;101313.28;;;16.42;100.00
65983;BME280;52740;40.620;-8.640;2022-10-18T03:45:32;101321.19;;;16.51;100.00
65983;BME280;52740;40.620;-8.640;2022-10-18T03:47:32;101321.19;;;16.51;100.00
65983;BME280;52740;40.620;-8.640;2022-10-18T03:49:33;101314.09;;;16.57;100.00
65983;BME280;52740;40.620;-8.640;2022-10-18T03:51:34;101312.53;;;16.63;100.00
65983;BME280;52740;40.620;-8.640;2022-10-18T03:53:34;101303.06;;;16.67;100.00
65983;BME280;52740;40.620;-8.640;2022-10-18T03:55:36;101311.41;;;16.71;100.00
65983;BME280;52740;40.620;-8.640;2022-10-18T03:57:36;101310.97;;;16.69;100.00
65983;BME280;52740;40.620;-8.640;2022-10-18T03:59:37;101311.78;;;16.70;100.00
65983;BME280;52740;40.620;-8.640;2022-10-18T04:01:38;101305.44;;;16.76;100.00
65983;BME280;52740;40.620;-8.640;2022-10-18T04:03:38;101309.41;;;16.82;100.00
65983;BME280;52740;40.620;-8.640;2022-10-18T04:05:39;101303.88;;;16.86;100.00
65983;BME280;52740;40.620;-8.640;2022-10-18T04:07:40;101301.91;;;16.97;100.00
65983;BME280;52740;40.620;-8.640;2022-10-18T04:09:40;101301.13;;;16.93;100.00
65983;BME280;52740;40.620;-8.640;2022-10-18T04:11:41;101299.94;;;16.97;100.00
65983;BME280;52740;40.620;-8.640;2022-10-18T04:13:42;101307.41;;;17.07;100.00
65983;BME280;52740;40.620;-8.640;2022-10-18T04:15:43;101309.78;;;17.12;100.00
65983;BME280;52740;40.620;-8.640;2022-10-18T04:17:43;101301.50;;;17.20;100.00
65983;BME280;52740;40.620;-8.640;2022-10-18T04:19:44;101307.81;;;17.24;100.00
65983;BME280;52740;40.620;-8.640;2022-10-18T04:21:45;101307.78;;;17.31;100.00
65983;BME280;52740;40.620;-8.640;2022-10-18T04:23:46;101307.38;;;17.36;100.00
65983;BME280;52740;40.620;-8.640;2022-10-18T04:25:48;101308.16;;;17.43;100.00
65983;BME280;52740;40.620;-8.640;2022-10-18T04:27:48;101300.63;;;17.47;100.00
65983;BME280;52740;40.620;-8.640;2022-10-18T04:29:49;101309.34;;;17.49;100.00
65983;BME280;52740;40.620;-8.640;2022-10-18T04:31:50;101317.63;;;17.53;100.00
65983;BME280;52740;40.620;-8.640;2022-10-18T04:33:50;101314.84;;;17.60;100.00
65983;BME280;52740;40.620;-8.640;2022-10-18T04:35:51;101312.06;;;17.56;100.00
65983;BME280;52740;40.620;-8.640;2022-10-18T04:37:53;101316.84;;;17.60;100.00
65983;BME280;52740;40.620;-8.640;2022-10-18T04:39:54;101312.47;;;17.66;100.00
65983;BME280;52740;40.620;-8.640;2022-10-18T04:41:54;101316.06;;;17.63;100.00
65983;BME280;52740;40.620;-8.640;2022-10-18T04:43:55;101319.63;;;17.63;100.00
65983;BME280;52740;40.620;-8.640;2022-10-18T04:45:56;101321.19;;;17.68;100.00
65983;BME280;52740;40.620;-8.640;2022-10-18T04:47:56;101320.00;;;17.65;100.00
65983;BME280;52740;40.620;-8.640;2022-10-18T04:49:57;101320.00;;;17.72;100.00
65983;BME280;52740;40.620;-8.640;2022-10-18T04:51:58;101320.38;;;17.74;100.00
65983;BME280;52740;40.620;-8.640;2022-10-18T04:53:58;101317.19;;;17.79;100.00
65983;BME280;52740;40.620;-8.640;2022-10-18T04:55:59;101316.41;;;17.75;100.00
65983;BME280;52740;40.620;-8.640;2022-10-18T04:58:00;101324.31;;;17.80;100.00
65983;BME280;52740;40.620;-8.640;2022-10-18T05:00:01;101315.19;;;17.80;100.00
65983;BME280;52740;40.620;-8.640;2022-10-18T05:02:02;101321.13;;;17.78;100.00
65983;BME280;52740;40.620;-8.640;2022-10-18T05:04:03;101324.31;;;17.73;100.00
65983;BME280;52740;40.620;-8.640;2022-10-18T05:06:04;101323.94;;;17.75;100.00
65983;BME280;52740;40.620;-8.640;2022-10-18T05:08:06;101329.47;;;17.75;100.00
65983;BME280;52740;40.620;-8.640;2022-10-18T05:10:07;101329.91;;;17.63;100.00
65983;BME280;52740;40.620;-8.640;2022-10-18T05:12:08;101335.47;;;17.59;100.00
65983;BME280;52740;40.620;-8.640;2022-10-18T05:14:08;101338.19;;;17.52;100.00
65983;BME280;52740;40.620;-8.640;2022-10-18T05:16:12;101336.63;;;17.44;100.00
65983;BME280;52740;40.620;-8.640;2022-10-18T05:18:12;101351.28;;;17.48;100.00
65983;BME280;52740;40.620;-8.640;2022-10-18T05:20:13;101350.47;;;17.47;100.00
65983;BME280;52740;40.620;-8.640;2022-10-18T05:22:14;101353.63;;;17.53;100.00
65983;BME280;52740;40.620;-8.640;2022-10-18T05:24:14;101350.47;;;17.47;100.00
65983;BME280;52740;40.620;-8.640;2022-10-18T05:26:15;101349.31;;;17.45;100.00
65983;BME280;52740;40.620;-8.640;2022-10-18T05:28:16;101350.09;;;17.38;100.00
65983;BME280;52740;40.620;-8.640;2022-10-18T05:30:16;101344.97;;;17.40;100.00
65983;BME280;52740;40.620;-8.640;2022-10-18T05:32:17;101345.78;;;17.37;100.00
65983;BME280;52740;40.620;-8.640;2022-10-18T05:34:18;101344.97;;;17.37;100.00
65983;BME280;52740;40.620;-8.640;2022-10-18T05:36:20;101340.22;;;17.30;100.00
65983;BME280;52740;40.620;-8.640;2022-10-18T05:38:20;101346.16;;;17.25;100.00
65983;BME280;52740;40.620;-8.640;2022-10-18T05:40:21;101347.38;;;17.13;100.00
65983;BME280;52740;40.620;-8.640;2022-10-18T05:42:22;101340.25;;;17.05;100.00
65983;BME280;52740;40.620;-8.640;2022-10-18T05:44:23;101354.09;;;17.05;100.00
65983;BME280;52740;40.620;-8.640;2022-10-18T05:46:24;101362.38;;;17.16;100.00
65983;BME280;52740;40.620;-8.640;2022-10-18T05:48:24;101357.66;;;17.24;100.00
65983;BME280;52740;40.620;-8.640;2022-10-18T05:50:26;101364.38;;;17.16;100.00
65983;BME280;52740;40.620;-8.640;2022-10-18T05:52:31;101371.09;;;17.18;100.00
65983;BME280;52740;40.620;-8.640;2022-10-18T05:54:36;101380.59;;;17.28;100.00
65983;BME280;52740;40.620;-8.640;2022-10-18T05:56:39;101395.59;;;17.27;100.00
65983;BME280;52740;40.620;-8.640;2022-10-18T05:58:41;101387.69;;;17.22;100.00
65983;BME280;52740;40.620;-8.640;2022-10-18T06:00:41;101399.97;;;17.24;100.00
65983;BME280;52740;40.620;-8.640;2022-10-18T06:02:42;101401.13;;;17.16;100.00
65983;BME280;52740;40.620;-8.640;2022-10-18T06:04:43;101394.41;;;17.13;100.00
65983;BME280;52740;40.620;-8.640;2022-10-18T06:06:51;101399.56;;;17.11;100.00
65983;BME280;52740;40.620;-8.640;2022-10-18T06:08:53;101401.16;;;17.05;100.00
65983;BME280;52740;40.620;-8.640;2022-10-18T06:10:54;101405.88;;;17.08;100.00
65983;BME280;52740;40.620;-8.640;2022-10-18T06:13:04;101416.97;;;17.05;100.00
65983;BME280;52740;40.620;-8.640;2022-10-18T06:15:05;101411.81;;;17.03;100.00
65983;BME280;52740;40.620;-8.640;2022-10-18T06:17:21;101420.91;;;17.07;100.00
65983;BME280;52740;40.620;-8.640;2022-10-18T06:19:23;101416.16;;;17.04;100.00
65983;BME280;52740;40.620;-8.640;2022-10-18T06:21:29;101405.50;;;17.06;100.00
65983;BME280;52740;40.620;-8.640;2022-10-18T06:23:30;101405.88;;;17.01;100.00
65983;BME280;52740;40.620;-8.640;2022-10-18T06:25:31;101401.94;;;17.09;100.00
65983;BME280;52740;40.620;-8.640;2022-10-18T06:27:33;101398.00;;;17.10;100.00
65983;BME280;52740;40.620;-8.640;2022-10-18T06:29:35;101396.38;;;17.17;100.00
65983;BME280;52740;40.620;-8.640;2022-10-18T06:31:36;101384.94;;;17.15;100.00
65983;BME280;52740;40.620;-8.640;2022-10-18T06:33:37;101394.00;;;17.11;100.00
65983;BME280;52740;40.620;-8.640;2022-10-18T06:35:37;101392.44;;;17.10;100.00
65983;BME280;52740;40.620;-8.640;2022-10-18T06:37:38;101394.81;;;17.08;100.00
65983;BME280;52740;40.620;-8.640;2022-10-18T06:39:39;101394.81;;;17.08;100.00
65983;BME280;52740;40.620;-8.640;2022-10-18T06:41:40;101397.19;;;17.10;100.00
65983;BME280;52740;40.620;-8.640;2022-10-18T06:43:53;101401.94;;;17.09;100.00
65983;BME280;52740;40.620;-8.640;2022-10-18T06:45:56;101411.41;;;17.05;100.00
65983;BME280;52740;40.620;-8.640;2022-10-18T06:47:57;101416.16;;;17.04;100.00
65983;BME280;52740;40.620;-8.640;2022-10-18T06:49:58;101416.97;;;17.05;100.00
65983;BME280;52740;40.620;-8.640;2022-10-18T06:51:59;101424.47;;;17.01;100.00
65983;BME280;52740;40.620;-8.640;2022-10-18T06:54:00;101426.06;;;17.05;100.00
65983;BME280;52740;40.620;-8.640;2022-10-18T06:56:03;101437.50;;;17.04;100.00
65983;BME280;52740;40.620;-8.640;2022-10-18T06:58:05;101422.88;;;17.00;100.00
65983;BME280;52740;40.620;-8.640;2022-10-18T07:00:06;101440.66;;;16.99;100.00
65983;BME280;52740;40.620;-8.640;2022-10-18T07:02:08;101439.91;;;17.05;100.00
65983;BME280;52740;40.620;-8.640;2022-10-18T07:04:13;101452.16;;;17.11;100.00
65983;BME280;52740;40.620;-8.640;2022-10-18T07:06:16;101442.28;;;17.21;100.00
65983;BME280;52740;40.620;-8.640;2022-10-18T07:08:17;101446.25;;;17.27;100.00
65983;BME280;52740;40.620;-8.640;2022-10-18T07:10:18;101432.78;;;17.29;100.00
65983;BME280;52740;40.620;-8.640;2022-10-18T07:12:19;101437.53;;;17.36;100.00
65983;BME280;52740;40.620;-8.640;2022-10-18T07:14:19;101433.97;;;17.39;100.00
65983;BME280;52740;40.620;-8.640;2022-10-18T07:16:20;101428.06;;;17.37;100.00
65983;BME280;52740;40.620;-8.640;2022-10-18T07:18:21;101435.16;;;17.48;100.00
65983;BME280;52740;40.620;-8.640;2022-10-18T07:20:22;101430.03;;;17.54;100.00
65983;BME280;52740;40.620;-8.640;2022-10-18T07:22:23;101439.13;;;17.54;100.00
65983;BME280;52740;40.620;-8.640;2022-10-18T07:24:23;101447.47;;;17.58;100.00
65983;BME280;52740;40.620;-8.640;2022-10-18T07:26:28;101459.72;;;17.71;100.00
65983;BME280;52740;40.620;-8.640;2022-10-18T07:28:29;101461.31;;;17.72;100.00
65983;BME280;52740;40.620;-8.640;2022-10-18T07:30:30;101458.91;;;17.74;100.00
65983;BME280;52740;40.620;-8.640;2022-10-18T07:32:31;101463.25;;;17.82;100.00
65983;BME280;52740;40.620;-8.640;2022-10-18T07:34:31;101458.91;;;17.88;100.00
65983;BME280;52740;40.620;-8.640;2022-10-18T07:36:32;101463.63;;;17.98;100.00
65983;BME280;52740;40.620;-8.640;2022-10-18T07:38:35;101458.84;;;18.06;100.00
65983;BME280;52740;40.620;-8.640;2022-10-18T07:40:36;101451.72;;;18.12;100.00
65983;BME280;52740;40.620;-8.640;2022-10-18T07:42:37;101454.06;;;18.21;100.00
65983;BME280;52740;40.620;-8.640;2022-10-18T07:44:38;101452.00;;;18.35;100.00
65983;BME280;52740;40.620;-8.640;2022-10-18T07:46:39;101460.31;;;18.39;100.00
65983;BME280;52740;40.620;-8.640;2022-10-18T07:48:40;101452.75;;;18.50;100.00
65983;BME280;52740;40.620;-8.640;2022-10-18T07:50:40;101468.94;;;18.69;100.00
65983;BME280;52740;40.620;-8.640;2022-10-18T07:52:41;101456.59;;;18.81;100.00
65983;BME280;52740;40.620;-8.640;2022-10-18T07:54:44;101471.94;;;18.96;100.00
65983;BME280;52740;40.620;-8.640;2022-10-18T07:56:44;101480.19;;;19.10;100.00
65983;BME280;52740;40.620;-8.640;2022-10-18T07:58:50;101476.94;;;19.26;100.00
65983;BME280;52740;40.620;-8.640;2022-10-18T08:00:51;101486.72;;;19.41;100.00
65983;BME280;52740;40.620;-8.640;2022-10-18T08:02:56;101485.06;;;19.54;100.00
65983;BME280;52740;40.620;-8.640;2022-10-18T08:04:57;101490.91;;;19.67;100.00
65983;BME280;52740;40.620;-8.640;2022-10-18T08:06:57;101493.59;;;19.77;100.00
65983;BME280;52740;40.620;-8.640;2022-10-18T08:09:03;101494.28;;;19.89;100.00
65983;BME280;52740;40.620;-8.640;2022-10-18T08:11:18;101487.81;;;19.99;100.00
65983;BME280;52740;40.620;-8.640;2022-10-18T08:13:20;101481.81;;;20.04;100.00
65983;BME280;52740;40.620;-8.640;2022-10-18T08:15:21;101492.56;;;20.02;100.00
65983;BME280;52740;40.620;-8.640;2022-10-18T08:17:27;101495.28;;;20.09;100.00
65983;BME280;52740;40.620;-8.640;2022-10-18T08:19:31;101485.41;;;20.04;100.00
65983;BME280;52740;40.620;-8.640;2022-10-18T08:21:32;101489.47;;;19.93;100.00
65983;BME280;52740;40.620;-8.640;2022-10-18T08:23:33;101488.97;;;20.05;100.00
65983;BME280;52740;40.620;-8.640;2022-10-18T08:25:43;101498.88;;;20.06;100.00
65983;BME280;52740;40.620;-8.640;2022-10-18T08:27:46;101487.28;;;20.11;100.00
65983;BME280;52740;40.620;-8.640;2022-10-18T08:29:47;101507.47;;;20.22;100.00
65983;BME280;52740;40.620;-8.640;2022-10-18T08:31:49;101497.53;;;20.21;100.00
65983;BME280;52740;40.620;-8.640;2022-10-18T08:33:50;101511.78;;;20.30;100.00
65983;BME280;52740;40.620;-8.640;2022-10-18T08:35:55;101511.31;;;20.35;100.00
65983;BME280;52740;40.620;-8.640;2022-10-18T08:37:56;101518.28;;;20.50;100.00
65983;BME280;52740;40.620;-8.640;2022-10-18T08:39:57;101517.53;;;20.46;100.00
65983;BME280;52740;40.620;-8.640;2022-10-18T08:44:47;101523.59;;;20.72;100.00
65983;BME280;52740;40.620;-8.640;2022-10-18T08:46:55;101523.50;;;20.79;100.00
65983;BME280;52740;40.620;-8.640;2022-10-18T08:48:58;101537.00;;;20.80;100.00
65983;BME280;52740;40.620;-8.640;2022-10-18T08:51:03;101537.56;;;20.98;100.00
65983;BME280;52740;40.620;-8.640;2022-10-18T08:53:23;101540.72;;;21.00;100.00
65983;BME280;52740;40.620;-8.640;2022-10-18T08:57:29;101531.47;;;21.07;100.00
65983;BME280;52740;40.620;-8.640;2022-10-18T08:59:37;101539.38;;;21.12;100.00
65983;BME280;52740;40.620;-8.640;2022-10-18T09:04:22;101542.50;;;21.44;100.00
65983;BME280;52740;40.620;-8.640;2022-10-18T09:06:34;101557.91;;;21.52;100.00
65983;BME280;52740;40.620;-8.640;2022-10-18T09:17:28;101543.38;;;21.65;100.00
65983;BME280;52740;40.620;-8.640;2022-10-18T09:22:16;101555.78;;;21.60;100.00
65983;BME280;52740;40.620;-8.640;2022-10-18T09:24:38;101551.84;;;21.57;100.00
65983;BME280;52740;40.620;-8.640;2022-10-18T09:26:45;101565.06;;;21.53;100.00
65983;BME280;52740;40.620;-8.640;2022-10-18T09:35:46;101569.22;;;21.11;100.00
65983;BME280;52740;40.620;-8.640;2022-10-18T09:37:49;101557.56;;;21.24;100.00
65983;BME280;52740;40.620;-8.640;2022-10-18T09:39:55;101564.91;;;21.37;100.00
65983;BME280;52740;40.620;-8.640;2022-10-18T09:42:37;101557.44;;;21.57;100.00
65983;BME280;52740;40.620;-8.640;2022-10-18T09:44:43;101549.13;;;21.77;100.00
65983;BME280;52740;40.620;-8.640;2022-10-18T09:46:55;101556.59;;;21.84;100.00
65983;BME280;52740;40.620;-8.640;2022-10-18T09:49:03;101547.19;;;22.01;100.00
65983;BME280;52740;40.620;-8.640;2022-10-18T09:51:12;101554.84;;;22.17;100.00
65983;BME280;52740;40.620;-8.640;2022-10-18T09:53:19;101550.66;;;22.28;100.00
65983;BME280;52740;40.620;-8.640;2022-10-18T09:55:24;101547.00;;;22.31;100.00
65983;BME280;52740;40.620;-8.640;2022-10-18T09:57:51;101552.75;;;22.44;100.00
65983;BME280;52740;40.620;-8.640;2022-10-18T09:59:53;101559.84;;;22.48;100.00
65983;BME280;52740;40.620;-8.640;2022-10-18T10:01:56;101573.06;;;22.64;100.00
65983;BME280;52740;40.620;-8.640;2022-10-18T10:03:57;101578.72;;;22.84;100.00
65983;BME280;52740;40.620;-8.640;2022-10-18T10:08:11;101569.81;;;22.89;100.00
65983;BME280;52740;40.620;-8.640;2022-10-18T10:10:19;101568.53;;;22.94;100.00
65983;BME280;52740;40.620;-8.640;2022-10-18T10:12:34;101563.41;;;23.08;100.00
65983;BME280;52740;40.620;-8.640;2022-10-18T10:14:42;101560.81;;;23.17;100.00
65983;BME280;52740;40.620;-8.640;2022-10-18T10:18:53;101580.00;;;22.99;100.00
65983;BME280;52740;40.620;-8.640;2022-10-18T10:20:56;101561.78;;;22.91;100.00
65983;BME280;52740;40.620;-8.640;2022-10-18T10:25:25;101573.19;;;23.36;100.00
65983;BME280;52740;40.620;-8.640;2022-10-18T10:27:41;101578.38;;;23.54;100.00
65983;BME280;52740;40.620;-8.640;2022-10-18T10:32:01;101577.06;;;23.74;100.00
65983;BME280;52740;40.620;-8.640;2022-10-18T10:34:28;101582.22;;;23.92;100.00
65983;BME280;52740;40.620;-8.640;2022-10-18T10:36:30;101574.72;;;23.89;100.00
65983;BME280;52740;40.620;-8.640;2022-10-18T10:38:31;101598.59;;;23.94;100.00
65983;BME280;52740;40.620;-8.640;2022-10-18T10:40:36;101598.47;;;24.13;100.00
65983;BME280;52740;40.620;-8.640;2022-10-18T10:45:21;101603.06;;;24.23;100.00
65983;BME280;52740;40.620;-8.640;2022-10-18T10:47:32;101574.47;;;24.16;100.00
65983;BME280;52740;40.620;-8.640;2022-10-18T10:49:47;101599.03;;;24.08;100.00
65983;BME280;52740;40.620;-8.640;2022-10-18T10:51:59;101590.38;;;24.19;100.00
65983;BME280;52740;40.620;-8.640;2022-10-18T10:54:05;101575.66;;;24.31;100.00
65983;BME280;52740;40.620;-8.640;2022-10-18T10:56:17;101574.47;;;24.74;100.00
65983;BME280;52740;40.620;-8.640;2022-10-18T10:58:20;101575.56;;;24.92;100.00
65983;BME280;52740;40.620;-8.640;2022-10-18T11:02:38;101587.13;;;25.07;100.00
65983;BME280;52740;40.620;-8.640;2022-10-18T11:04:40;101591.53;;;25.21;100.00
65983;BME280;52740;40.620;-8.640;2022-10-18T11:06:52;101582.66;;;25.09;100.00
65983;BME280;52740;40.620;-8.640;2022-10-18T11:08:58;101583.66;;;25.16;100.00
65983;BME280;52740;40.620;-8.640;2022-10-18T11:11:18;101589.41;;;25.37;100.00
65983;BME280;52740;40.620;-8.640;2022-10-18T11:13:38;101572.72;;;25.59;100.00
65983;BME280;52740;40.620;-8.640;2022-10-18T11:15:49;101587.50;;;25.72;100.00
65983;BME280;52740;40.620;-8.640;2022-10-18T11:20:21;101578.31;;;25.59;99.59
65983;BME280;52740;40.620;-8.640;2022-10-18T11:22:24;101572.94;;;25.39;100.00
65983;BME280;52740;40.620;-8.640;2022-10-18T11:24:27;101574.94;;;25.64;100.00
65983;BME280;52740;40.620;-8.640;2022-10-18T11:36:19;101566.09;;;27.12;84.75
65983;BME280;52740;40.620;-8.640;2022-10-18T11:38:49;101563.69;;;27.02;85.15
65983;BME280;52740;40.620;-8.640;2022-10-18T12:02:45;101516.59;;;26.62;80.95
65983;BME280;52740;40.620;-8.640;2022-10-18T12:04:57;101522.75;;;26.14;84.13
65983;BME280;52740;40.620;-8.640;2022-10-18T12:07:03;101534.31;;;26.50;84.33
65983;BME280;52740;40.620;-8.640;2022-10-18T12:11:39;101520.84;;;26.88;82.56
65983;BME280;52740;40.620;-8.640;2022-10-18T12:15:48;101511.88;;;27.52;78.43
65983;BME280;52740;40.620;-8.640;2022-10-18T12:17:57;101524.75;;;27.71;75.57